createdAt,value
2019-01-25T00:00:27.419Z,128.33
2019-01-25T00:02:56.147Z,119.77
2019-01-25T00:05:24.560Z,143.43
2019-01-25T00:07:53.345Z,119.47
2019-01-25T00:10:22.129Z,134.87
2019-01-25T00:12:50.910Z,116.90
2019-01-25T00:15:19.728Z,127.93
2019-01-25T00:17:48.529Z,120.77
2019-01-25T00:20:17.319Z,112.40
2019-01-25T00:22:46.080Z,119.30
2019-01-25T00:25:14.939Z,113.37
2019-01-25T00:27:43.787Z,124.73
2019-01-25T00:30:15.568Z,121.47
2019-01-25T00:32:44.341Z,122.87
2019-01-25T00:35:13.221Z,123.43
2019-01-25T00:37:41.668Z,122.63
2019-01-25T00:40:13.130Z,123.10
2019-01-25T00:42:41.836Z,115.67
2019-01-25T00:45:12.062Z,115.00
2019-01-25T00:47:40.778Z,114.63
2019-01-25T00:50:18.183Z,121.27
2019-01-25T00:52:47.642Z,123.60
2019-01-25T00:55:16.202Z,113.60
2019-01-25T00:57:44.883Z,120.57
2019-01-25T01:00:24.743Z,120.23
2019-01-25T01:02:53.769Z,118.27
2019-01-25T01:05:22.789Z,115.73
2019-01-25T01:07:51.823Z,121.03
2019-01-25T01:10:20.941Z,118.17
2019-01-25T01:12:50.439Z,115.40
2019-01-25T01:15:19.424Z,113.00
2019-01-25T01:17:48.590Z,109.17
2019-01-25T01:20:19.224Z,108.90
2019-01-25T01:22:48.264Z,119.47
2019-01-25T01:25:17.420Z,114.37
2019-01-25T01:27:46.290Z,115.60
2019-01-25T01:30:18.056Z,120.80
2019-01-25T01:32:46.849Z,115.47
2019-01-25T01:35:15.618Z,119.20
2019-01-25T01:37:44.419Z,107.07
2019-01-25T01:40:21.761Z,113.13
2019-01-25T01:42:46.817Z,115.20
2019-01-25T01:45:15.763Z,112.93
2019-01-25T01:47:44.599Z,117.70
2019-01-25T01:50:15.589Z,114.03
2019-01-25T01:52:44.481Z,120.07
2019-01-25T01:55:13.290Z,112.90
2019-01-25T01:57:42.064Z,118.43
2019-01-25T02:00:13.821Z,106.23
2019-01-25T02:02:42.541Z,117.60
2019-01-25T02:05:11.478Z,121.47
2019-01-25T02:07:40.311Z,100.90
2019-01-25T02:10:14.742Z,114.77
2019-01-25T02:12:43.597Z,116.87
2019-01-25T02:15:15.191Z,114.97
2019-01-25T02:17:43.947Z,132.60
2019-01-25T02:20:26.909Z,117.97
2019-01-25T02:22:55.461Z,111.67
2019-01-25T02:25:24.423Z,117.87
2019-01-25T02:27:53.187Z,124.53
2019-01-25T02:30:26.089Z,119.30
2019-01-25T02:32:54.822Z,115.87
2019-01-25T02:35:23.688Z,120.87
2019-01-25T02:37:52.829Z,119.43
2019-01-25T02:40:23.602Z,109.30
2019-01-25T02:42:52.260Z,114.07
2019-01-25T02:45:20.871Z,115.87
2019-01-25T02:47:49.403Z,127.97
2019-01-25T02:50:19.751Z,112.90
2019-01-25T02:52:48.689Z,116.00
2019-01-25T02:55:17.785Z,112.50
2019-01-25T02:57:46.451Z,114.43
2019-01-25T03:00:23.799Z,117.20
2019-01-25T03:02:53.878Z,119.57
2019-01-25T03:05:23.514Z,110.50
2019-01-25T03:07:52.535Z,104.60
2019-01-25T03:10:28.494Z,109.10
2019-01-25T03:12:53.338Z,110.03
2019-01-25T03:15:24.574Z,109.57
2019-01-25T03:17:53.546Z,108.90
2019-01-25T03:20:22.771Z,109.83
2019-01-25T03:22:51.560Z,101.93
2019-01-25T03:25:22.619Z,124.40
2019-01-25T03:27:51.592Z,116.43
2019-01-25T03:30:25.040Z,113.20
2019-01-25T03:32:54.278Z,119.80
2019-01-25T03:35:24.940Z,106.37
2019-01-25T03:37:53.757Z,123.70
2019-01-25T03:40:27.104Z,120.90
2019-01-25T03:42:56.108Z,118.17
2019-01-25T03:45:25.449Z,126.57
2019-01-25T03:47:54.942Z,119.13
2019-01-25T03:50:26.238Z,115.97
2019-01-25T03:52:55.086Z,123.07
2019-01-25T03:55:23.899Z,108.10
2019-01-25T03:57:52.493Z,117.60
2019-01-25T04:00:29.258Z,116.40
2019-01-25T04:02:58.271Z,114.80
2019-01-25T04:05:26.857Z,116.57
2019-01-25T04:07:55.791Z,116.30
2019-01-25T04:10:26.558Z,107.57
2019-01-25T04:12:55.386Z,117.20
2019-01-25T04:15:29.352Z,107.70
2019-01-25T04:17:57.848Z,107.53
2019-01-25T04:20:26.691Z,112.97
2019-01-25T04:22:55.260Z,96.50
2019-01-25T04:25:24.605Z,112.33
2019-01-25T04:27:54.153Z,112.97
2019-01-25T04:30:27.906Z,106.93
2019-01-25T04:32:56.864Z,109.93
2019-01-25T04:35:25.783Z,114.13
2019-01-25T04:37:54.361Z,95.50
2019-01-25T04:40:23.033Z,104.63
2019-01-25T04:42:51.609Z,89.87
2019-01-25T04:45:21.864Z,108.30
2019-01-25T04:47:50.797Z,102.43
2019-01-25T04:50:26.118Z,114.23
2019-01-25T04:52:55.871Z,107.53
2019-01-25T04:55:29.921Z,99.57
2019-01-25T04:58:07.393Z,122.83
2019-01-25T05:00:36.172Z,107.90
2019-01-25T05:03:05.630Z,116.93
2019-01-25T05:05:34.486Z,120.60
2019-01-25T05:08:05.579Z,107.80
2019-01-25T05:10:34.667Z,103.67
2019-01-25T05:13:03.412Z,101.30
2019-01-25T05:15:32.229Z,116.57
2019-01-25T05:18:01.006Z,115.93
2019-01-25T05:20:29.608Z,108.00
2019-01-25T05:23:02.733Z,107.53
2019-01-25T05:25:31.211Z,107.17
2019-01-25T05:28:04.350Z,111.40
2019-01-25T05:30:32.779Z,125.70
2019-01-25T05:33:01.228Z,116.17
2019-01-25T05:35:34.477Z,107.23
2019-01-25T05:38:03.134Z,110.83
2019-01-25T05:40:32.493Z,118.90
2019-01-25T05:43:01.215Z,119.73
2019-01-25T05:45:30.044Z,105.40
2019-01-25T05:47:58.746Z,103.17
2019-01-25T05:50:27.166Z,120.20
2019-01-25T05:52:56.031Z,103.80
2019-01-25T05:55:24.801Z,124.50
2019-01-25T05:57:59.292Z,117.07
2019-01-25T06:00:29.692Z,132.70
2019-01-25T06:03:03.229Z,136.73
2019-01-25T06:05:31.937Z,134.00
2019-01-25T06:08:00.636Z,135.73
2019-01-25T06:10:32.409Z,134.93
2019-01-25T06:13:01.176Z,137.47
2019-01-25T06:15:29.816Z,136.37
2019-01-25T06:18:03.545Z,139.87
2019-01-25T06:20:32.514Z,135.57
2019-01-25T06:23:01.378Z,115.73
2019-01-25T06:25:30.157Z,130.27
2019-01-25T06:27:58.905Z,137.27
2019-01-25T06:30:27.595Z,141.17
2019-01-25T06:32:56.399Z,149.40
2019-01-25T06:35:26.029Z,133.63
2019-01-25T06:37:54.808Z,136.40
2019-01-25T06:40:23.474Z,148.40
2019-01-25T06:42:52.168Z,134.57
2019-01-25T06:45:20.998Z,139.13
2019-01-25T06:47:49.514Z,148.73
2019-01-25T06:50:18.400Z,138.33
2019-01-25T06:52:46.857Z,142.00
2019-01-25T06:55:15.582Z,136.67
2019-01-25T06:57:45.645Z,145.97
2019-01-25T07:00:19.784Z,131.90
2019-01-25T07:02:48.649Z,133.53
2019-01-25T07:05:17.496Z,133.50
2019-01-25T07:07:47.082Z,131.83
2019-01-25T07:10:18.426Z,146.07
2019-01-25T07:12:47.220Z,138.63
2019-01-25T07:15:17.731Z,144.07
2019-01-25T07:17:46.577Z,170.73
2019-01-25T07:20:16.518Z,145.00
2019-01-25T07:22:45.224Z,137.50
2019-01-25T07:25:15.400Z,140.17
2019-01-25T07:27:44.177Z,152.30
2019-01-25T07:30:16.985Z,153.87
2019-01-25T07:32:45.910Z,149.97
2019-01-25T07:35:14.961Z,155.03
2019-01-25T07:37:43.523Z,151.67
2019-01-25T07:40:12.681Z,147.40
2019-01-25T07:42:41.257Z,140.37
2019-01-25T07:45:14.705Z,147.30
2019-01-25T07:47:43.142Z,163.73
2019-01-25T07:50:12.801Z,140.30
2019-01-25T07:52:41.817Z,152.50
2019-01-25T07:55:12.197Z,149.23
2019-01-25T07:57:41.009Z,146.80
2019-01-25T08:00:12.235Z,155.57
2019-01-25T08:02:40.748Z,155.07
2019-01-25T08:05:10.733Z,162.77
2019-01-25T08:07:39.764Z,154.77
2019-01-25T08:10:17.016Z,142.47
2019-01-25T08:12:45.782Z,139.20
2019-01-25T08:15:17.583Z,154.73
2019-01-25T08:17:46.318Z,143.70
2019-01-25T08:20:15.735Z,137.17
2019-01-25T08:22:44.477Z,150.13
2019-01-25T08:25:13.370Z,160.37
2019-01-25T08:27:42.114Z,146.63
2019-01-25T08:30:20.111Z,152.40
2019-01-25T08:32:48.850Z,157.07
2019-01-25T08:35:17.805Z,164.10
2019-01-25T08:37:46.499Z,146.60
2019-01-25T08:40:16.409Z,147.40
2019-01-25T08:42:45.318Z,144.33
2019-01-25T08:45:18.390Z,160.13
2019-01-25T08:47:47.242Z,144.57
2019-01-25T08:50:27.296Z,150.37
2019-01-25T08:52:56.089Z,144.20
2019-01-25T08:55:24.855Z,149.50
2019-01-25T08:57:53.546Z,155.20
2019-01-25T09:00:24.216Z,167.20
2019-01-25T09:02:53.261Z,176.10
2019-01-25T09:05:21.911Z,151.07
2019-01-25T09:07:50.772Z,161.07
2019-01-25T09:10:21.602Z,157.90
2019-01-25T09:12:50.393Z,161.93
2019-01-25T09:15:22.690Z,152.07
2019-01-25T09:17:51.436Z,153.37
2019-01-25T09:20:22.028Z,147.23
2019-01-25T09:22:51.152Z,168.03
2019-01-25T09:25:19.895Z,149.30
2019-01-25T09:27:49.453Z,163.07
2019-01-25T09:30:26.451Z,161.07
2019-01-25T09:32:55.245Z,138.60
2019-01-25T09:35:24.087Z,160.63
2019-01-25T09:37:53.137Z,152.50
2019-01-25T09:40:26.167Z,151.57
2019-01-25T09:42:54.846Z,146.17
2019-01-25T09:45:23.882Z,164.77
2019-01-25T09:47:52.657Z,156.40
2019-01-25T09:50:22.626Z,155.00
2019-01-25T09:52:51.394Z,166.33
2019-01-25T09:55:25.227Z,151.43
2019-01-25T09:58:02.730Z,154.70
2019-01-25T10:00:40.216Z,145.83
2019-01-25T10:03:08.938Z,159.63
2019-01-25T10:05:37.690Z,160.17
2019-01-25T10:08:06.613Z,145.20
2019-01-25T10:10:35.479Z,149.47
2019-01-25T10:13:03.967Z,153.70
2019-01-25T10:15:32.810Z,149.40
2019-01-25T10:18:01.265Z,147.27
2019-01-25T10:20:30.036Z,163.17
2019-01-25T10:22:58.458Z,156.73
2019-01-25T10:25:27.147Z,164.90
2019-01-25T10:27:55.562Z,152.67
2019-01-25T10:30:26.763Z,167.70
2019-01-25T10:32:55.287Z,156.90
2019-01-25T10:35:24.221Z,172.60
2019-01-25T10:37:53.508Z,163.00
2019-01-25T10:40:23.659Z,157.40
2019-01-25T10:42:53.700Z,157.10
2019-01-25T10:45:40.185Z,163.90
2019-01-25T10:48:09.344Z,168.20
2019-01-25T10:50:37.828Z,156.47
2019-01-25T10:53:07.871Z,185.90
2019-01-25T10:55:36.653Z,177.93
2019-01-25T10:58:06.285Z,184.27
2019-01-25T11:00:35.199Z,163.50
2019-01-25T11:03:03.830Z,174.43
2019-01-25T11:05:32.669Z,180.53
2019-01-25T11:08:01.356Z,154.87
2019-01-25T11:10:30.126Z,166.97
2019-01-25T11:13:01.062Z,162.90
2019-01-25T11:15:29.364Z,147.37
2019-01-25T11:17:57.938Z,163.07
2019-01-25T11:20:27.308Z,156.00
2019-01-25T11:22:55.754Z,147.83
2019-01-25T11:25:33.332Z,136.43
2019-01-25T11:28:02.036Z,139.37
2019-01-25T11:30:30.853Z,130.57
2019-01-25T11:32:59.590Z,158.17
2019-01-25T11:35:28.133Z,147.70
2019-01-25T11:37:56.554Z,135.40
2019-01-25T11:40:30.480Z,126.87
2019-01-25T11:42:59.233Z,135.63
2019-01-25T11:45:27.777Z,127.00
2019-01-25T11:47:56.611Z,120.60
2019-01-25T11:50:25.385Z,117.80
2019-01-25T11:52:54.153Z,117.53
2019-01-25T11:55:22.983Z,117.50
2019-01-25T11:57:51.695Z,127.70
2019-01-25T12:00:25.931Z,121.23
2019-01-25T12:02:54.479Z,117.67
2019-01-25T12:05:24.354Z,116.27
2019-01-25T12:07:54.019Z,102.17
2019-01-25T12:10:28.437Z,109.17
2019-01-25T12:12:57.208Z,97.20
2019-01-25T12:15:26.350Z,106.93
2019-01-25T12:17:55.192Z,84.80
2019-01-25T12:20:28.911Z,86.17
2019-01-25T12:22:57.749Z,84.13
2019-01-25T12:25:26.281Z,89.47
2019-01-25T12:27:55.344Z,92.03
2019-01-25T12:30:28.847Z,73.20
2019-01-25T12:32:57.600Z,61.17
2019-01-25T12:35:28.041Z,55.83
2019-01-25T12:37:56.915Z,54.30
2019-01-25T12:40:25.766Z,60.10
2019-01-25T12:42:54.526Z,52.47
2019-01-25T12:45:28.730Z,40.83
2019-01-25T12:47:57.236Z,37.13
2019-01-25T12:50:31.732Z,38.20
2019-01-25T12:53:01.551Z,33.53
2019-01-25T12:55:32.739Z,30.90
2019-01-25T12:58:00.334Z,31.63
2019-01-25T13:00:30.489Z,33.43
2019-01-25T13:02:59.495Z,43.43
2019-01-25T13:05:28.358Z,36.10
2019-01-25T13:07:57.107Z,32.37
2019-01-25T13:10:27.363Z,29.67
2019-01-25T13:12:56.294Z,33.47
2019-01-25T13:15:24.797Z,23.97
2019-01-25T13:17:53.371Z,28.97
2019-01-25T13:20:27.482Z,26.97
2019-01-25T13:22:56.313Z,26.43
2019-01-25T13:25:24.973Z,30.73
2019-01-25T13:27:53.715Z,30.27
2019-01-25T13:30:32.518Z,28.80
2019-01-25T13:33:01.173Z,32.73
2019-01-25T13:35:30.029Z,29.80
2019-01-25T13:37:58.739Z,35.20
2019-01-25T13:40:28.554Z,35.50
2019-01-25T13:42:57.375Z,40.40
2019-01-25T13:45:26.197Z,37.30
2019-01-25T13:47:55.045Z,33.40
2019-01-25T13:50:28.030Z,36.77
2019-01-25T13:52:56.820Z,29.40
2019-01-25T13:55:25.729Z,30.73
2019-01-25T13:57:54.552Z,36.97
2019-01-25T14:00:31.469Z,31.10
2019-01-25T14:03:00.190Z,32.13
2019-01-25T14:05:29.107Z,28.20
2019-01-25T14:07:57.894Z,23.90
2019-01-25T14:10:29.455Z,28.13
2019-01-25T14:12:57.944Z,29.77
2019-01-25T14:15:26.741Z,37.20
2019-01-25T14:17:55.512Z,24.43
2019-01-25T14:20:27.041Z,30.10
2019-01-25T14:22:55.847Z,29.70
2019-01-25T14:25:24.688Z,32.27
2019-01-25T14:27:53.511Z,27.20
2019-01-25T14:30:31.633Z,31.50
2019-01-25T14:33:00.387Z,27.90
2019-01-25T14:35:30.366Z,32.27
2019-01-25T14:37:59.236Z,26.67
2019-01-25T14:40:28.041Z,34.10
2019-01-25T14:42:56.997Z,24.07
2019-01-25T14:45:26.085Z,23.43
2019-01-25T14:47:54.845Z,27.70
2019-01-25T14:50:26.031Z,34.00
2019-01-25T14:52:54.471Z,21.70
2019-01-25T14:55:23.332Z,25.00
2019-01-25T14:57:51.890Z,25.83
2019-01-25T15:00:20.707Z,23.10
2019-01-25T15:02:50.365Z,29.87
2019-01-25T15:05:20.524Z,28.50
2019-01-25T15:07:49.362Z,25.17
2019-01-25T15:10:20.294Z,29.07
2019-01-25T15:12:49.918Z,25.73
2019-01-25T15:15:18.677Z,26.50
2019-01-25T15:17:47.236Z,28.40
2019-01-25T15:20:18.800Z,38.57
2019-01-25T15:22:47.593Z,29.80
2019-01-25T15:25:16.436Z,28.53
2019-01-25T15:27:45.250Z,22.27
2019-01-25T15:30:25.836Z,26.63
2019-01-25T15:32:54.772Z,22.43
2019-01-25T15:35:24.015Z,29.57
2019-01-25T15:37:52.810Z,23.60
2019-01-25T15:40:22.733Z,31.50
2019-01-25T15:42:51.571Z,23.07
2019-01-25T15:45:22.123Z,27.83
2019-01-25T15:47:50.972Z,21.43
2019-01-25T15:50:28.507Z,24.77
2019-01-25T15:52:57.283Z,24.70
2019-01-25T15:55:26.445Z,21.90
2019-01-25T15:57:55.262Z,17.30
2019-01-25T16:00:26.554Z,22.17
2019-01-25T16:02:55.445Z,19.50
2019-01-25T16:05:24.726Z,22.17
2019-01-25T16:07:53.298Z,24.07
2019-01-25T16:10:23.018Z,21.70
2019-01-25T16:12:52.347Z,17.83
2019-01-25T16:15:23.770Z,22.10
2019-01-25T16:17:53.422Z,20.80
2019-01-25T16:20:22.270Z,26.37
2019-01-25T16:22:52.998Z,25.47
2019-01-25T16:25:24.374Z,23.90
2019-01-25T16:27:53.185Z,27.13
2019-01-25T16:33:08.004Z,21.80
2019-01-25T16:35:36.864Z,23.23
2019-01-25T16:38:05.814Z,25.93
2019-01-25T16:40:34.642Z,21.10
2019-01-25T16:43:03.416Z,20.70
2019-01-25T16:45:37.538Z,23.80
2019-01-25T16:48:06.605Z,26.60
2019-01-25T16:50:35.456Z,27.03
2019-01-25T16:53:04.895Z,23.43
2019-01-25T16:55:33.398Z,25.20
2019-01-25T16:58:01.886Z,23.73
2019-01-25T17:00:35.835Z,27.80
2019-01-25T17:03:04.782Z,22.87
2019-01-25T17:05:33.430Z,29.03
2019-01-25T17:08:02.165Z,28.70
2019-01-25T17:10:30.741Z,24.50
2019-01-25T17:12:59.517Z,21.33
2019-01-25T17:15:28.214Z,39.80
2019-01-25T17:17:57.158Z,26.30
2019-01-25T17:20:27.907Z,29.43
2019-01-25T17:22:56.932Z,26.17
2019-01-25T17:25:25.748Z,29.73
2019-01-25T17:27:54.410Z,31.80
2019-01-25T17:30:25.582Z,33.60
2019-01-25T17:32:55.444Z,28.50
2019-01-25T17:35:24.354Z,32.27
2019-01-25T17:37:53.202Z,36.83
2019-01-25T17:40:24.843Z,27.83
2019-01-25T17:42:53.624Z,30.77
2019-01-25T17:45:22.487Z,38.47
2019-01-25T17:47:51.206Z,26.50
2019-01-25T17:50:19.989Z,30.50
2019-01-25T17:52:48.772Z,33.20
2019-01-25T17:55:18.544Z,31.50
2019-01-25T17:57:47.408Z,38.43
2019-01-25T18:00:20.824Z,46.13
2019-01-25T18:02:49.530Z,38.03
2019-01-25T18:05:18.332Z,26.87
2019-01-25T18:07:47.034Z,46.17
2019-01-25T18:10:18.155Z,37.40
2019-01-25T18:12:46.901Z,31.83
2019-01-25T18:15:17.467Z,28.80
2019-01-25T18:17:46.211Z,34.47
2019-01-25T18:20:17.079Z,30.50
2019-01-25T18:22:45.926Z,35.57
2019-01-25T18:25:17.433Z,32.43
2019-01-25T18:27:49.147Z,31.70
2019-01-25T18:30:24.628Z,33.47
2019-01-25T18:32:53.121Z,36.27
2019-01-25T18:35:21.638Z,40.13
2019-01-25T18:37:50.398Z,51.67
2019-01-25T18:40:18.851Z,43.50
2019-01-25T18:42:47.622Z,38.27
2019-01-25T18:45:16.494Z,40.53
2019-01-25T18:47:44.911Z,36.50
2019-01-25T18:50:15.866Z,37.47
2019-01-25T18:52:44.383Z,41.83
2019-01-25T18:55:16.036Z,39.67
2019-01-25T18:57:44.459Z,35.97
2019-01-25T19:00:16.727Z,34.50
2019-01-25T19:02:45.594Z,41.40
2019-01-25T19:05:14.146Z,37.83
2019-01-25T19:07:42.939Z,37.60
2019-01-25T19:10:26.358Z,40.93
2019-01-25T19:12:55.161Z,50.20
2019-01-25T19:15:26.790Z,53.67
2019-01-25T19:17:55.645Z,48.50
2019-01-25T19:20:24.404Z,42.80
2019-01-25T19:22:53.099Z,52.20
2019-01-25T19:25:21.626Z,51.23
2019-01-25T19:27:50.404Z,52.17
2019-01-25T19:30:30.617Z,51.57
2019-01-25T19:32:59.167Z,45.03
2019-01-25T19:35:28.119Z,40.50
2019-01-25T19:37:57.065Z,47.90
2019-01-25T19:40:31.357Z,44.17
2019-01-25T19:43:00.176Z,46.90
2019-01-25T19:45:28.997Z,44.00
2019-01-25T19:47:57.583Z,41.80
2019-01-25T19:50:26.400Z,49.03
2019-01-25T19:52:55.258Z,43.40
2019-01-25T19:55:26.496Z,40.63
2019-01-25T19:57:55.830Z,41.23
2019-01-25T20:00:32.958Z,42.13
2019-01-25T20:03:01.535Z,50.97
2019-01-25T20:05:32.430Z,45.27
2019-01-25T20:08:01.658Z,45.67
2019-01-25T20:10:31.970Z,36.60
2019-01-25T20:13:00.735Z,43.23
2019-01-25T20:15:29.307Z,46.03
2019-01-25T20:17:58.166Z,53.00
2019-01-25T20:20:35.500Z,42.83
2019-01-25T20:23:04.749Z,47.30
2019-01-25T20:25:33.557Z,36.97
2019-01-25T20:28:02.400Z,38.97
2019-01-25T20:30:33.301Z,41.13
2019-01-25T20:33:03.406Z,43.07
2019-01-25T20:35:34.721Z,41.13
2019-01-25T20:38:03.556Z,47.70
2019-01-25T20:40:32.115Z,45.30
2019-01-25T20:43:00.828Z,42.40
2019-01-25T20:45:31.882Z,45.33
2019-01-25T20:48:00.482Z,39.33
2019-01-25T20:50:31.506Z,50.70
2019-01-25T20:53:00.168Z,45.67
2019-01-25T20:55:28.702Z,55.90
2019-01-25T20:57:58.258Z,44.33
2019-01-25T21:00:32.049Z,45.80
2019-01-25T21:03:00.912Z,35.00
2019-01-25T21:05:29.583Z,42.33
2019-01-25T21:07:58.252Z,39.20
2019-01-25T21:10:27.302Z,34.50
2019-01-25T21:12:56.668Z,37.73
2019-01-25T21:15:34.838Z,34.37
2019-01-25T21:17:58.160Z,38.13
2019-01-25T21:20:35.364Z,33.07
2019-01-25T21:23:04.718Z,35.00
2019-01-25T21:25:33.746Z,28.80
2019-01-25T21:28:03.420Z,41.47
2019-01-25T21:30:34.466Z,36.70
2019-01-25T21:33:03.302Z,38.30
2019-01-25T21:35:32.075Z,32.63
2019-01-25T21:38:00.823Z,32.50
2019-01-25T21:40:31.792Z,53.53
2019-01-25T21:43:00.464Z,39.40
2019-01-25T21:45:31.325Z,52.77
2019-01-25T21:48:00.273Z,38.50
2019-01-25T21:50:37.488Z,30.30
2019-01-25T21:53:06.706Z,35.90
2019-01-25T21:55:35.444Z,26.77
2019-01-25T21:58:05.889Z,32.33
2019-01-25T22:00:36.175Z,28.97
2019-01-25T22:03:06.710Z,28.37
2019-01-25T22:05:35.602Z,26.77
2019-01-25T22:08:05.102Z,26.67
2019-01-25T22:10:39.830Z,29.27
2019-01-25T22:13:08.695Z,108.57
2019-01-25T22:15:37.472Z,81.00
2019-01-25T22:18:06.278Z,41.23
2019-01-25T22:20:35.083Z,31.80
2019-01-25T22:23:03.879Z,29.57
2019-01-25T22:25:32.635Z,27.87
2019-01-25T22:28:01.112Z,27.20
2019-01-25T22:30:30.348Z,24.37
2019-01-25T22:32:59.245Z,26.87
2019-01-25T22:35:28.580Z,25.03
2019-01-25T22:37:56.980Z,23.80
2019-01-25T22:40:28.340Z,23.30
2019-01-25T22:42:57.213Z,29.80
2019-01-25T22:45:29.505Z,22.57
2019-01-25T22:47:59.431Z,34.77
2019-01-25T22:50:30.460Z,26.50
2019-01-25T22:52:58.956Z,23.90
2019-01-25T22:55:28.106Z,18.77
2019-01-25T22:57:56.878Z,21.50
2019-01-25T23:00:48.165Z,25.57
2019-01-25T23:03:25.540Z,24.07
2019-01-25T23:06:24.538Z,24.40
2019-01-25T23:08:53.359Z,22.80
2019-01-25T23:11:22.191Z,23.17
2019-01-25T23:13:50.616Z,27.63
2019-01-25T23:16:19.112Z,31.33
2019-01-25T23:18:47.821Z,48.53
2019-01-25T23:21:16.318Z,29.40
2019-01-25T23:23:44.993Z,34.40
2019-01-25T23:26:13.783Z,28.00
2019-01-25T23:28:42.482Z,24.63
2019-01-25T23:31:12.394Z,22.00
2019-01-25T23:33:41.164Z,25.40
2019-01-25T23:36:10.082Z,29.80
2019-01-25T23:38:38.891Z,26.90
2019-01-25T23:41:07.409Z,28.83
2019-01-25T23:43:35.909Z,25.80
2019-01-25T23:46:05.192Z,25.43
2019-01-25T23:48:33.999Z,24.60
2019-01-25T23:51:02.738Z,34.80
2019-01-25T23:53:31.439Z,29.07
2019-01-25T23:56:00.130Z,26.13
2019-01-25T23:58:28.982Z,27.03
